Time;durP1;ratioP1;P1;durP2;ratioP2;P2;SDS_P1;SDS_P2;PMS_P1;PMS_P2;Temp;Humidity;BMP_temperature;BMP_pressure;BME280_temperature;BME280_humidity;BME280_pressure;Samples;Min_cycle;Max_cycle;Signal;HPM_P1;HPM_P2
2022/11/12 00:00:16;;;;;;;;;;;;;;;17.20;54.22;102136.13;5058067;28;1097;-58
2022/11/12 00:03:00;;;;;;;;;;;;;;;16.39;56.06;102145.06;5044438;28;954;-60
2022/11/12 00:05:44;;;;;;;;;;;;;;;16.13;56.37;102140.88;5058556;28;1203;-61
2022/11/12 00:08:27;;;;;;;;;;;;;;;15.93;56.32;102138.47;5057979;28;1146;-62
2022/11/12 00:11:12;;;;;;;;;;;;;;;16.06;56.46;102139.06;5058124;28;1100;-62
2022/11/12 00:13:55;;;;;;;;;;;;;;;17.65;53.17;102137.22;5058188;28;1115;-64
2022/11/12 00:16:39;;;;;;;;;;;;;;;16.66;55.65;102142.66;5045223;28;959;-61
2022/11/12 00:19:23;;;;;;;;;;;;;;;16.23;56.28;102133.72;5058044;28;1159;-62
2022/11/12 00:22:07;;;;;;;;;;;;;;;16.45;56.05;102132.28;5048030;28;931;-63
2022/11/12 00:24:51;;;;;;;;;;;;;;;17.32;53.84;102133.31;5058323;28;1112;-62
2022/11/12 00:27:35;;;;;;;;;;;;;;;16.48;55.97;102134.53;5057953;28;2393;-62
2022/11/12 00:30:19;;;;;;;;;;;;;;;16.16;56.12;102127.50;5057829;28;1909;-61
2022/11/12 00:33:03;;;;;;;;;;;;;;;15.98;56.15;102136.69;5042437;28;1046;-62
2022/11/12 00:35:47;;;;;;;;;;;;;;;15.86;56.29;102133.06;5057955;28;1175;-62
2022/11/12 00:38:31;;;;;;;;;;;;;;;17.14;54.53;102131.56;5057620;28;1096;-62
2022/11/12 00:41:15;;;;;;;;;;;;;;;16.97;54.90;102137.00;5057667;28;1090;-62
2022/11/12 00:43:59;;;;;;;;;;;;;;;16.35;56.01;102130.97;5057276;28;1104;-62
2022/11/12 00:46:43;;;;;;;;;;;;;;;16.08;56.42;102128.69;5057590;28;1085;-62
2022/11/12 00:49:27;;;;;;;;;;;;;;;15.89;56.34;102121.63;5044449;28;1972;-62
2022/11/12 00:52:11;;;;;;;;;;;;;;;17.06;54.89;102133.63;5057404;28;1104;-61
2022/11/12 00:54:55;;;;;;;;;;;;;;;16.75;55.56;102124.72;5057433;28;1139;-62
2022/11/12 00:57:39;;;;;;;;;;;;;;;16.24;56.34;102140.88;5060616;28;2265;-61
2022/11/12 01:00:23;;;;;;;;;;;;;;;15.95;56.72;102120.69;5057176;28;1248;-61
2022/11/12 01:03:07;;;;;;;;;;;;;;;16.51;56.35;102128.56;5057387;28;923;-60
2022/11/12 01:05:51;;;;;;;;;;;;;;;17.31;53.99;102120.66;5057180;28;1072;-60
2022/11/12 01:08:35;;;;;;;;;;;;;;;16.42;56.02;102128.97;5056939;28;1116;-60
2022/11/12 01:11:20;;;;;;;;;;;;;;;16.27;56.27;102139.59;5057100;28;1179;-59
2022/11/12 01:14:05;;;;;;;;;;;;;;;17.39;53.77;102129.34;5056331;28;1116;-61
2022/11/12 01:16:48;;;;;;;;;;;;;;;16.51;55.83;102131.31;5045227;28;1038;-60
2022/11/12 01:19:32;;;;;;;;;;;;;;;16.18;56.25;102135.50;5056901;28;1132;-62
2022/11/12 01:22:16;;;;;;;;;;;;;;;16.02;56.24;102139.78;5056627;28;895;-60
2022/11/12 01:25:00;;;;;;;;;;;;;;;16.97;55.14;102135.13;5056719;28;1212;-61
2022/11/12 01:27:44;;;;;;;;;;;;;;;16.91;54.99;102139.66;5056584;28;2353;-59
2022/11/12 01:30:28;;;;;;;;;;;;;;;16.32;55.99;102136.13;5056568;28;1905;-61
2022/11/12 01:33:12;;;;;;;;;;;;;;;16.01;56.50;102138.94;5056260;28;1053;-61
2022/11/12 01:35:57;;;;;;;;;;;;;;;17.14;54.75;102142.56;5056593;28;1175;-60
2022/11/12 01:38:41;;;;;;;;;;;;;;;16.76;55.27;102137.38;5042855;28;914;-60
2022/11/12 01:41:29;;;;;;;;;;;;;;;16.29;56.31;102125.63;5056450;28;1065;-60
2022/11/12 01:44:14;;;;;;;;;;;;;;;16.01;56.61;102138.94;5056334;28;1306;-61
2022/11/12 01:47:04;;;;;;;;;;;;;;;15.89;56.23;102133.44;5050646;28;958;-60
2022/11/12 01:50:04;;;;;;;;;;;;;;;16.62;55.94;102119.50;5041246;28;1967;-60
2022/11/12 01:52:49;;;;;;;;;;;;;;;17.35;53.92;102116.31;5027872;28;1007;-62
2022/11/12 01:55:33;;;;;;;;;;;;;;;16.40;56.25;102116.53;5056127;28;1175;-57
2022/11/12 01:58:18;;;;;;;;;;;;;;;16.11;56.50;102108.19;5040857;28;2437;-58
2022/11/12 02:01:02;;;;;;;;;;;;;;;16.06;56.60;102121.75;5055857;28;1209;-61
2022/11/12 02:03:46;;;;;;;;;;;;;;;17.55;53.37;102110.38;5056060;28;1112;-58
2022/11/12 02:06:30;;;;;;;;;;;;;;;16.53;55.99;102120.94;5043405;28;1006;-59
2022/11/12 02:09:14;;;;;;;;;;;;;;;16.12;56.31;102131.81;5040226;28;1965;-58
2022/11/12 02:11:58;;;;;;;;;;;;;;;15.96;56.66;102127.00;5040741;28;1282;-58
2022/11/12 02:14:42;;;;;;;;;;;;;;;17.39;54.00;102117.50;5055887;28;1277;-58
2022/11/12 02:17:26;;;;;;;;;;;;;;;16.62;55.73;102130.50;5040889;28;1219;-58
2022/11/12 02:20:10;;;;;;;;;;;;;;;16.24;56.40;102126.31;5043849;28;943;-58
2022/11/12 02:22:54;;;;;;;;;;;;;;;16.02;56.32;102123.31;5055489;28;875;-58
2022/11/12 02:25:38;;;;;;;;;;;;;;;15.84;56.54;102135.22;5055859;28;1136;-58
2022/11/12 02:28:22;;;;;;;;;;;;;;;17.35;54.16;102128.16;5064274;28;2424;-59
2022/11/12 02:31:06;;;;;;;;;;;;;;;16.65;55.62;102130.00;5055721;28;1953;-58
2022/11/12 02:33:50;;;;;;;;;;;;;;;16.16;56.31;102133.00;5045708;28;968;-59
2022/11/12 02:36:33;;;;;;;;;;;;;;;15.95;56.46;102136.31;5055631;28;1184;-59
2022/11/12 02:39:17;;;;;;;;;;;;;;;16.03;56.83;102138.69;5055473;28;1104;-59
2022/11/12 02:42:01;;;;;;;;;;;;;;;17.60;53.57;102126.97;5055563;28;1112;-60
2022/11/12 02:44:45;;;;;;;;;;;;;;;16.56;55.76;102132.28;5055355;28;1170;-58
2022/11/12 02:47:29;;;;;;;;;;;;;;;16.18;56.24;102135.50;5055402;28;1088;-58
2022/11/12 02:50:13;;;;;;;;;;;;;;;15.94;56.46;102140.97;5055400;28;1914;-58
2022/11/12 02:52:57;;;;;;;;;;;;;;;15.84;56.66;102140.72;5043214;28;939;-59
2022/11/12 02:55:41;;;;;;;;;;;;;;;17.39;54.24;102144.97;5055681;28;1084;-60
2022/11/12 02:58:25;;;;;;;;;;;;;;;16.67;55.79;102138.00;5055095;28;2518;-61
2022/11/12 03:01:09;;;;;;;;;;;;;;;16.17;56.64;102131.94;5055101;28;1205;-61
2022/11/12 03:03:53;;;;;;;;;;;;;;;16.01;56.34;102138.94;5055436;28;1101;-63
2022/11/12 03:06:37;;;;;;;;;;;;;;;17.28;54.39;102138.47;5043666;28;966;-62
2022/11/12 03:09:21;;;;;;;;;;;;;;;16.35;56.29;102133.72;5055073;28;1902;-60
2022/11/12 03:12:05;;;;;;;;;;;;;;;16.05;56.75;102147.56;5055363;28;1144;-63
2022/11/12 03:14:48;;;;;;;;;;;;;;;15.88;56.46;102147.41;5055354;28;1235;-59
2022/11/12 03:17:35;;;;;;;;;;;;;;;16.30;56.60;102149.22;5055313;28;1084;-61
2022/11/12 03:20:19;;;;;;;;;;;;;;;17.33;53.93;102133.06;5055286;28;1103;-59
2022/11/12 03:23:07;;;;;;;;;;;;;;;16.41;56.03;102135.50;5054803;28;1139;-58
2022/11/12 03:25:51;;;;;;;;;;;;;;;16.08;56.60;102149.81;5055151;28;1253;-59
2022/11/12 03:28:35;;;;;;;;;;;;;;;15.91;56.60;102145.00;5059612;28;2474;-61
2022/11/12 03:31:19;;;;;;;;;;;;;;;16.42;56.43;102159.16;5055326;28;1109;-59
2022/11/12 03:34:03;;;;;;;;;;;;;;;17.68;53.05;102165.06;5054929;28;1176;-60
2022/11/12 03:36:47;;;;;;;;;;;;;;;16.56;55.69;102169.88;5055627;28;1187;-59
2022/11/12 03:39:31;;;;;;;;;;;;;;;16.18;56.44;102174.75;5058711;28;1065;-61
2022/11/12 03:42:15;;;;;;;;;;;;;;;15.99;56.26;102168.53;5058692;28;1144;-60
2022/11/12 03:44:59;;;;;;;;;;;;;;;16.64;56.14;102172.28;5058670;28;1268;-61
2022/11/12 03:47:43;;;;;;;;;;;;;;;17.33;53.82;102163.28;5045279;28;919;-61
2022/11/12 03:50:28;;;;;;;;;;;;;;;16.46;55.96;102169.66;5058513;28;1976;-60
2022/11/12 03:53:12;;;;;;;;;;;;;;;16.13;56.51;102171.03;5058651;28;1139;-60
2022/11/12 03:55:56;;;;;;;;;;;;;;;15.96;56.32;102166.25;5058635;28;1085;-60
2022/11/12 03:58:39;;;;;;;;;;;;;;;16.14;56.55;102172.72;5058096;28;2547;-60
2022/11/12 04:01:23;;;;;;;;;;;;;;;17.18;54.39;102172.09;5045518;28;1291;-61
2022/11/12 04:04:08;;;;;;;;;;;;;;;16.32;56.43;102169.06;5058442;28;1096;-60
2022/11/12 04:09:55;;;;;;;;;;;;;;;16.91;55.43;102182.78;5045344;28;1913;-60
2022/11/12 04:15:41;;;;;;;;;;;;;;;16.18;56.35;102184.91;5058219;28;1045;-61
2022/11/12 04:27:35;;;;;;;;;;;;;;;16.16;56.60;102181.53;5057881;28;2417;-60
2022/11/12 04:30:19;;;;;;;;;;;;;;;15.96;56.51;102182.69;5044147;28;1910;-58
2022/11/12 04:33:03;;;;;;;;;;;;;;;16.71;55.71;102175.72;5057702;28;1179;-60
2022/11/12 04:35:47;;;;;;;;;;;;;;;16.89;55.09;102179.44;5057569;28;880;-61
2022/11/12 04:38:30;;;;;;;;;;;;;;;16.25;56.35;102182.88;5057647;28;1135;-57
2022/11/12 04:47:20;;;;;;;;;;;;;;;16.49;55.62;102202.13;5057242;28;1167;-60
2022/11/12 04:50:11;;;;;;;;;;;;;;;16.14;56.49;102200.16;5056630;28;1971;-58
2022/11/12 04:52:55;;;;;;;;;;;;;;;15.95;56.42;102197.50;5045474;28;986;-58
2022/11/12 04:55:39;;;;;;;;;;;;;;;15.83;56.25;102196.63;5057384;28;1171;-57
2022/11/12 04:58:23;;;;;;;;;;;;;;;17.03;54.70;102207.50;5057050;28;2726;-57
2022/11/12 05:01:07;;;;;;;;;;;;;;;16.90;54.92;102212.19;5056903;28;1044;-59
2022/11/12 05:03:51;;;;;;;;;;;;;;;16.28;56.10;102222.75;5056603;28;1140;-59
2022/11/12 05:06:50;;;;;;;;;;;;;;;16.05;56.41;102216.97;5057176;28;1069;-57
2022/11/12 05:09:34;;;;;;;;;;;;;;;15.83;56.41;102219.41;5057144;28;1901;-57
2022/11/12 05:12:18;;;;;;;;;;;;;;;17.27;54.09;102222.03;5045885;28;919;-57
2022/11/12 05:15:03;;;;;;;;;;;;;;;16.75;55.27;102215.38;5057181;28;1148;-58
2022/11/12 05:17:47;;;;;;;;;;;;;;;16.20;56.47;102216.53;5057066;28;1092;-55
2022/11/12 05:20:31;;;;;;;;;;;;;;;16.68;55.89;102227.56;5043530;28;958;-58
2022/11/12 05:23:15;;;;;;;;;;;;;;;17.09;54.14;102223.84;5056817;28;1076;-58
2022/11/12 05:26:00;;;;;;;;;;;;;;;16.37;56.02;102211.19;5056369;28;1171;-59
2022/11/12 05:28:44;;;;;;;;;;;;;;;16.10;56.14;102220.91;5056608;28;2418;-59
2022/11/12 05:31:28;;;;;;;;;;;;;;;15.94;56.37;102226.00;5056682;28;1136;-59
2022/11/12 05:34:12;;;;;;;;;;;;;;;17.31;54.09;102230.63;5043490;28;954;-61
2022/11/12 05:36:57;;;;;;;;;;;;;;;16.96;54.61;102239.75;5056481;28;1169;-59
2022/11/12 05:39:40;;;;;;;;;;;;;;;16.36;56.06;102247.13;5055959;28;1151;-61
2022/11/12 05:42:24;;;;;;;;;;;;;;;16.14;56.05;102260.53;5056475;28;1089;-60
2022/11/12 05:45:08;;;;;;;;;;;;;;;17.07;54.65;102252.66;5044219;28;1002;-61
2022/11/12 05:47:52;;;;;;;;;;;;;;;16.79;54.98;102261.59;5056428;28;1060;-61
2022/11/12 05:50:36;;;;;;;;;;;;;;;16.28;56.25;102266.66;5056336;28;1913;-60
2022/11/12 05:53:20;;;;;;;;;;;;;;;16.04;56.25;102267.44;5056522;28;1124;-58
2022/11/12 05:56:04;;;;;;;;;;;;;;;15.91;56.28;102260.22;5056348;28;1124;-57
2022/11/12 05:58:48;;;;;;;;;;;;;;;17.33;53.91;102262.28;5053136;28;2366;-59
2022/11/12 06:01:32;;;;;;;;;;;;;;;16.60;55.53;102262.53;5055177;28;1119;-56
2022/11/12 06:04:17;;;;;;;;;;;;;;;16.19;56.10;102257.94;5055824;28;1021;-57
2022/11/12 06:07:02;;;;;;;;;;;;;;;15.97;56.31;102266.69;5047419;28;1079;-57
2022/11/12 06:09:46;;;;;;;;;;;;;;;16.25;56.34;102268.78;5053337;28;1902;-56
2022/11/12 06:12:30;;;;;;;;;;;;;;;17.78;52.66;102267.06;5055502;28;950;-55
2022/11/12 06:15:14;;;;;;;;;;;;;;;16.80;55.07;102271.50;5056099;28;1096;-57
2022/11/12 06:17:58;;;;;;;;;;;;;;;16.35;55.93;102279.19;5054714;28;1074;-57
2022/11/12 06:20:42;;;;;;;;;;;;;;;16.16;55.87;102277.59;5055400;28;1318;-56
2022/11/12 06:23:26;;;;;;;;;;;;;;;15.98;56.08;102279.34;5055192;28;1060;-57
2022/11/12 06:26:10;;;;;;;;;;;;;;;17.47;53.46;102275.78;5055272;28;1089;-57
2022/11/12 06:28:54;;;;;;;;;;;;;;;16.74;55.18;102276.03;5057680;28;2184;-58
2022/11/12 06:31:37;;;;;;;;;;;;;;;16.29;56.03;102282.91;5055459;28;1144;-57
2022/11/12 06:34:21;;;;;;;;;;;;;;;17.89;52.29;102273.59;5055209;28;1187;-57
2022/11/12 06:37:05;;;;;;;;;;;;;;;16.61;53.39;102271.63;5052792;28;1062;-57
2022/11/12 06:39:49;;;;;;;;;;;;;;;16.50;53.38;102287.00;5055268;28;974;-59
2022/11/12 06:42:33;;;;;;;;;;;;;;;16.97;53.69;102294.50;5055295;28;1108;-58
2022/11/12 06:45:17;;;;;;;;;;;;;;;16.37;52.47;102296.28;5055480;28;994;-57
2022/11/12 06:48:01;;;;;;;;;;;;;;;17.20;53.59;102284.56;5055305;28;1065;-57
2022/11/12 06:50:45;;;;;;;;;;;;;;;16.51;52.51;102296.91;5054964;28;1961;-57
2022/11/12 06:53:29;;;;;;;;;;;;;;;16.32;50.75;102293.41;5055074;28;1045;-58
2022/11/12 06:56:13;;;;;;;;;;;;;;;17.18;53.03;102301.28;5055183;28;1057;-59
2022/11/12 06:58:57;;;;;;;;;;;;;;;16.90;52.83;102297.34;5054466;28;2302;-57
2022/11/12 07:01:41;;;;;;;;;;;;;;;17.43;53.50;102297.41;5054320;28;1192;-57
2022/11/12 07:04:25;;;;;;;;;;;;;;;17.72;52.71;102292.78;5055095;28;1022;-58
2022/11/12 07:07:09;;;;;;;;;;;;;;;16.95;51.81;102304.88;5054964;28;1061;-57
2022/11/12 07:09:53;;;;;;;;;;;;;;;17.59;52.89;102295.84;5054451;28;1906;-57
2022/11/12 07:12:37;;;;;;;;;;;;;;;16.82;52.33;102299.59;5056779;28;1188;-58
2022/11/12 07:15:21;;;;;;;;;;;;;;;17.02;52.57;102305.56;5058962;28;1148;-58
2022/11/12 07:18:05;;;;;;;;;;;;;;;17.06;52.75;102301.28;5058892;28;1041;-57
2022/11/12 07:20:48;;;;;;;;;;;;;;;16.74;51.32;102296.09;5058479;28;1010;-59
2022/11/12 07:23:33;;;;;;;;;;;;;;;17.71;52.45;102295.78;5058616;28;1037;-59
2022/11/12 07:26:24;;;;;;;;;;;;;;;16.90;51.92;102307.47;5058809;28;1089;-58
2022/11/12 07:29:08;;;;;;;;;;;;;;;18.13;52.13;102315.63;5056448;28;1897;-57
2022/11/12 07:31:52;;;;;;;;;;;;;;;17.36;52.50;102318.69;5059168;28;1006;-57
2022/11/12 07:34:36;;;;;;;;;;;;;;;17.50;52.55;102316.53;5059079;28;973;-57
2022/11/12 07:37:20;;;;;;;;;;;;;;;17.82;52.39;102322.41;5058503;28;938;-57
2022/11/12 07:40:04;;;;;;;;;;;;;;;17.16;51.34;102317.16;5057203;28;1046;-56
2022/11/12 07:42:48;;;;;;;;;;;;;;;17.86;52.06;102328.28;5058319;28;1103;-55
2022/11/12 07:45:32;;;;;;;;;;;;;;;17.06;52.60;102323.25;5058319;28;1195;-55
2022/11/12 07:48:16;;;;;;;;;;;;;;;18.93;50.77;102323.09;5058385;28;1056;-57
2022/11/12 07:51:06;;;;;;;;;;;;;;;17.87;51.76;102327.22;5045034;28;1979;-59
2022/11/12 07:53:51;;;;;;;;;;;;;;;17.26;50.82;102331.16;5058598;28;1076;-59
2022/11/12 07:56:35;;;;;;;;;;;;;;;17.04;49.66;102319.94;5058437;28;1127;-57
2022/11/12 07:59:19;;;;;;;;;;;;;;;17.68;51.89;102324.59;5057178;28;895;-57
2022/11/12 08:02:03;;;;;;;;;;;;;;;17.13;51.82;102333.31;5058225;28;1089;-57
2022/11/12 08:04:47;;;;;;;;;;;;;;;18.66;51.25;102329.22;5046353;28;915;-57
2022/11/12 08:07:31;;;;;;;;;;;;;;;17.49;51.82;102334.09;5058208;28;1182;-57
2022/11/12 08:10:15;;;;;;;;;;;;;;;17.12;50.39;102334.38;5058345;28;1972;-57
2022/11/12 08:12:58;;;;;;;;;;;;;;;17.25;50.58;102336.88;5055761;28;1326;-57
2022/11/12 08:15:42;;;;;;;;;;;;;;;17.70;51.94;102338.16;5058679;28;1135;-58
2022/11/12 08:18:26;;;;;;;;;;;;;;;17.14;50.70;102343.22;5058154;28;1175;-59
2022/11/12 08:21:11;;;;;;;;;;;;;;;17.23;50.73;102344.53;5053731;28;1515;-57
2022/11/12 08:23:55;;;;;;;;;;;;;;;17.47;51.56;102352.78;5043969;28;876;-57
2022/11/12 08:26:39;;;;;;;;;;;;;;;17.12;50.01;102339.88;5057879;28;1072;-58
2022/11/12 08:29:23;;;;;;;;;;;;;;;16.95;49.15;102353.50;5047266;28;1902;-58
2022/11/12 08:32:07;;;;;;;;;;;;;;;17.00;49.97;102351.72;5057567;28;1119;-58
2022/11/12 08:34:51;;;;;;;;;;;;;;;17.19;50.83;102349.66;5057761;28;1210;-57
2022/11/12 08:37:35;;;;;;;;;;;;;;;16.88;49.98;102348.09;5055635;28;998;-59
2022/11/12 08:40:18;;;;;;;;;;;;;;;17.61;51.10;102345.91;5057612;28;1108;-57
2022/11/12 08:43:04;;;;;;;;;;;;;;;17.01;50.39;102347.91;5057696;28;1119;-58
2022/11/12 08:45:49;;;;;;;;;;;;;;;18.05;50.66;102357.31;5057568;28;1192;-58
2022/11/12 08:48:33;;;;;;;;;;;;;;;17.31;51.03;102355.19;5057254;28;1143;-57
2022/11/12 08:51:17;;;;;;;;;;;;;;;17.06;49.90;102350.75;5045434;28;1906;-57
2022/11/12 08:54:01;;;;;;;;;;;;;;;18.05;50.76;102354.56;5057441;28;1155;-57
2022/11/12 08:56:45;;;;;;;;;;;;;;;17.27;50.72;102345.72;5057379;28;1870;-58
2022/11/12 08:59:28;;;;;;;;;;;;;;;16.96;49.82;102356.00;5057407;28;1049;-57
2022/11/12 09:02:12;;;;;;;;;;;;;;;18.50;50.30;102352.09;5051430;28;1248;-58
2022/11/12 09:04:56;;;;;;;;;;;;;;;17.38;51.07;102355.88;5055317;28;991;-57
2022/11/12 09:07:40;;;;;;;;;;;;;;;17.00;49.74;102354.47;5057291;28;993;-57
2022/11/12 09:10:24;;;;;;;;;;;;;;;18.02;50.57;102359.72;5057017;28;2073;-57
2022/11/12 09:13:09;;;;;;;;;;;;;;;17.18;50.70;102356.25;5056787;28;886;-56
2022/11/12 09:15:53;;;;;;;;;;;;;;;18.05;50.77;102346.31;5056976;28;1274;-58
2022/11/12 09:18:37;;;;;;;;;;;;;;;17.59;51.14;102337.91;5042131;28;1192;-59
2022/11/12 09:21:23;;;;;;;;;;;;;;;17.62;51.64;102331.09;5056999;28;930;-55
2022/11/12 09:24:07;;;;;;;;;;;;;;;17.92;51.29;102330.94;5056475;28;1120;-56
2022/11/12 09:26:52;;;;;;;;;;;;;;;17.32;50.35;102331.25;5056674;28;1928;-56
2022/11/12 09:29:36;;;;;;;;;;;;;;;17.12;49.16;102331.63;5056676;28;1902;-59
2022/11/12 09:32:20;;;;;;;;;;;;;;;17.55;50.81;102324.91;5056645;28;1163;-58
2022/11/12 09:35:04;;;;;;;;;;;;;;;17.16;50.01;102330.09;5056753;28;1100;-57
2022/11/12 09:37:48;;;;;;;;;;;;;;;16.92;49.05;102321.84;5041109;28;1101;-58
2022/11/12 09:40:38;;;;;;;;;;;;;;;17.33;49.70;102320.00;5056378;28;1068;-57
2022/11/12 09:43:22;;;;;;;;;;;;;;;17.22;50.35;102321.72;5041362;28;1136;-57
2022/11/12 09:46:10;;;;;;;;;;;;;;;16.94;49.39;102314.19;5043989;28;935;-57
2022/11/12 09:49:17;;;;;;;;;;;;;;;17.66;50.23;102318.53;5056009;28;1108;-57
2022/11/12 09:52:15;;;;;;;;;;;;;;;18.12;50.45;102318.66;5055892;28;1145;-57
2022/11/12 09:55:07;;;;;;;;;;;;;;;18.42;50.59;102323.03;5046965;28;1057;-57
2022/11/12 09:57:51;;;;;;;;;;;;;;;17.51;50.72;102320.97;5041394;28;2392;-57
2022/11/12 10:00:35;;;;;;;;;;;;;;;17.27;49.50;102327.31;5055823;28;1120;-58
2022/11/12 10:03:30;;;;;;;;;;;;;;;17.08;48.87;102332.13;5040815;28;1100;-57
2022/11/12 10:06:15;;;;;;;;;;;;;;;17.64;50.98;102323.41;5041056;28;1062;-57
2022/11/12 10:09:12;;;;;;;;;;;;;;;17.47;50.93;102337.09;5041081;28;1112;-57
2022/11/12 10:12:30;;;;;;;;;;;;;;;18.43;50.67;102325.53;5040859;28;1069;-58
2022/11/12 10:18:51;;;;;;;;;;;;;;;17.13;49.30;102333.31;5044475;28;1056;-56
2022/11/12 10:21:54;;;;;;;;;;;;;;;17.88;50.53;102335.22;5055825;28;1203;-58
2022/11/12 10:24:38;;;;;;;;;;;;;;;17.30;51.06;102339.75;5055564;28;1187;-57
2022/11/12 10:27:26;;;;;;;;;;;;;;;18.99;49.83;102333.09;5055811;28;2367;-61
2022/11/12 10:30:14;;;;;;;;;;;;;;;17.62;51.23;102337.44;5055590;28;1913;-61
2022/11/12 10:32:58;;;;;;;;;;;;;;;17.43;49.55;102339.50;5055637;28;1057;-57
2022/11/12 10:35:42;;;;;;;;;;;;;;;17.19;48.74;102343.34;5055780;28;1076;-58
2022/11/12 10:38:26;;;;;;;;;;;;;;;17.05;48.05;102349.06;5055211;28;1183;-56
2022/11/12 10:41:17;;;;;;;;;;;;;;;17.55;50.35;102352.41;5040581;28;1053;-56
2022/11/12 10:44:02;;;;;;;;;;;;;;;17.08;49.79;102347.75;5055849;28;1092;-60
2022/11/12 10:46:46;;;;;;;;;;;;;;;18.33;50.30;102336.38;5054704;28;1088;-57
2022/11/12 10:49:30;;;;;;;;;;;;;;;17.40;50.71;102348.25;5039899;28;1894;-56
2022/11/12 10:52:19;;;;;;;;;;;;;;;17.22;49.19;102351.97;5055442;28;1111;-58
2022/11/12 10:55:15;;;;;;;;;;;;;;;17.62;50.77;102345.69;5055250;28;1249;-57
2022/11/12 10:58:10;;;;;;;;;;;;;;;17.16;49.81;102338.34;5046359;28;2505;-59
2022/11/12 11:01:00;;;;;;;;;;;;;;;17.76;50.19;102338.00;5039953;28;1121;-58
2022/11/12 11:03:46;;;;;;;;;;;;;;;17.24;50.46;102343.47;5055635;28;1085;-58
2022/11/12 11:06:30;;;;;;;;;;;;;;;18.38;50.20;102352.16;5055484;28;1049;-59
2022/11/12 11:09:15;;;;;;;;;;;;;;;17.97;50.69;102348.63;5055475;28;1981;-59
2022/11/12 11:11:59;;;;;;;;;;;;;;;17.42;50.40;102357.06;5055410;28;1072;-58
2022/11/12 11:14:43;;;;;;;;;;;;;;;17.23;49.17;102355.53;5054882;28;1337;-58
2022/11/12 11:17:27;;;;;;;;;;;;;;;17.08;48.54;102342.25;5055388;28;1108;-59
2022/11/12 11:20:22;;;;;;;;;;;;;;;17.33;49.27;102342.00;5055252;28;942;-58
2022/11/12 11:23:07;;;;;;;;;;;;;;;17.53;50.48;102351.78;5049363;28;1116;-59
2022/11/12 11:25:51;;;;;;;;;;;;;;;17.27;50.31;102346.56;5022372;28;1317;-59
2022/11/12 11:28:37;;;;;;;;;;;;;;;18.01;50.49;102352.56;5030944;28;2210;-58
2022/11/12 11:31:37;;;;;;;;;;;;;;;17.32;50.26;102353.25;5054894;28;1968;-58
2022/11/12 11:34:34;;;;;;;;;;;;;;;17.05;49.08;102354.56;5039691;28;1085;-59
2022/11/12 11:37:25;;;;;;;;;;;;;;;17.71;50.41;102346.16;5036666;28;1101;-59
2022/11/12 11:40:34;;;;;;;;;;;;;;;17.16;49.68;102343.81;5054530;28;1029;-59
2022/11/12 11:43:22;;;;;;;;;;;;;;;17.69;50.02;102351.06;5039628;28;1180;-60
2022/11/12 11:46:20;;;;;;;;;;;;;;;17.20;49.89;102350.53;5039662;28;1119;-58
2022/11/12 11:49:16;;;;;;;;;;;;;;;17.02;48.52;102355.03;5039179;28;1014;-60
2022/11/12 11:52:19;;;;;;;;;;;;;;;18.12;49.75;102349.75;5052144;28;1126;-60
2022/11/12 11:55:26;;;;;;;;;;;;;;;17.30;49.93;102353.50;5054480;28;1096;-60
2022/11/12 11:58:10;;;;;;;;;;;;;;;16.98;48.87;102353.84;5020887;28;1905;-59
2022/11/12 12:01:06;;;;;;;;;;;;;;;17.61;49.70;102351.41;5058270;28;1140;-59
2022/11/12 12:04:01;;;;;;;;;;;;;;;17.03;49.56;102351.22;5042762;28;1029;-59
2022/11/12 12:07:08;;;;;;;;;;;;;;;18.51;49.35;102353.75;5058030;28;1012;-59
2022/11/12 12:10:04;;;;;;;;;;;;;;;17.54;50.47;102353.47;5057521;28;1980;-59
2022/11/12 12:13:07;;;;;;;;;;;;;;;18.09;50.39;102353.00;5058026;28;1279;-59
2022/11/12 12:15:54;;;;;;;;;;;;;;;17.65;50.53;102347.13;5056893;28;1204;-59
2022/11/12 12:18:38;;;;;;;;;;;;;;;17.36;49.40;102366.31;5057799;28;1306;-59
2022/11/12 12:21:22;;;;;;;;;;;;;;;17.10;48.54;102357.44;5057786;28;1108;-58
2022/11/12 12:24:12;;;;;;;;;;;;;;;18.11;50.19;102364.59;5042849;28;1028;-59
2022/11/12 12:27:13;;;;;;;;;;;;;;;17.37;49.82;102365.19;5057616;28;1888;-59
2022/11/12 12:30:12;;;;;;;;;;;;;;;16.95;49.24;102364.50;5042823;28;1905;-58
2022/11/12 12:32:58;;;;;;;;;;;;;;;17.76;49.69;102365.50;5042701;28;1117;-59
2022/11/12 12:35:52;;;;;;;;;;;;;;;17.13;49.63;102363.56;5042748;28;1179;-60
2022/11/12 12:38:44;;;;;;;;;;;;;;;18.80;49.52;102373.81;5048736;28;859;-60
2022/11/12 12:41:30;;;;;;;;;;;;;;;17.61;50.69;102371.53;5057886;28;1057;-59
2022/11/12 12:44:14;;;;;;;;;;;;;;;17.35;49.58;102375.63;5057625;28;1227;-59
2022/11/12 12:46:58;;;;;;;;;;;;;;;18.13;50.07;102365.19;5057713;28;1143;-58
2022/11/12 12:49:42;;;;;;;;;;;;;;;17.42;49.84;102373.56;5042136;28;1906;-57
2022/11/12 12:52:26;;;;;;;;;;;;;;;18.53;49.84;102368.13;5042358;28;1159;-57
2022/11/12 12:55:29;;;;;;;;;;;;;;;17.71;50.63;102378.31;5057529;28;1076;-58
2022/11/12 12:58:18;;;;;;;;;;;;;;;17.36;49.18;102381.94;5050158;28;2623;-58
2022/11/12 13:01:02;;;;;;;;;;;;;;;18.00;50.04;102379.22;5042121;28;1148;-58
2022/11/12 13:03:50;;;;;;;;;;;;;;;17.29;49.98;102373.81;5057433;28;949;-58
2022/11/12 13:06:37;;;;;;;;;;;;;;;17.58;49.94;102379.41;5042223;28;1049;-57
2022/11/12 13:09:23;;;;;;;;;;;;;;;17.48;50.05;102382.78;5056299;28;1975;-57
2022/11/12 13:14:53;;;;;;;;;;;;;;;17.11;48.23;102374.78;5047689;28;875;-57
2022/11/12 13:17:44;;;;;;;;;;;;;;;18.05;48.99;102373.84;5041954;28;1124;-57
2022/11/12 13:20:32;;;;;;;;;;;;;;;17.15;49.78;102375.97;5041886;28;1100;-57
2022/11/12 13:24:04;;;;;;;;;;;;;;;17.73;49.57;102387.19;5056878;28;1068;-56
2022/11/12 13:26:42;;;;;;;;;;;;;;;17.47;50.09;102381.09;5056502;28;1266;-57
2022/11/12 13:29:26;;;;;;;;;;;;;;;18.59;49.62;102379.00;5050928;28;1977;-58
2022/11/12 13:32:29;;;;;;;;;;;;;;;18.05;50.54;102375.75;5056794;28;1159;-57
2022/11/12 13:35:14;;;;;;;;;;;;;;;17.50;49.67;102382.53;5056607;28;1274;-57
2022/11/12 13:38:07;;;;;;;;;;;;;;;17.27;48.89;102373.22;5041314;28;1069;-57
2022/11/12 13:40:55;;;;;;;;;;;;;;;17.85;50.29;102373.38;5042737;28;911;-58
2022/11/12 13:43:42;;;;;;;;;;;;;;;17.32;49.34;102369.75;5041596;28;1155;-58
2022/11/12 13:46:27;;;;;;;;;;;;;;;18.16;50.18;102368.53;5041644;28;1168;-57
2022/11/12 13:49:12;;;;;;;;;;;;;;;17.44;49.70;102379.66;5041275;28;1136;-56
2022/11/12 13:51:56;;;;;;;;;;;;;;;18.27;50.00;102376.75;5055954;28;970;-57
2022/11/12 13:54:40;;;;;;;;;;;;;;;17.54;50.49;102378.22;5029279;28;994;-57
2022/11/12 13:57:28;;;;;;;;;;;;;;;17.27;49.12;102370.47;5041078;28;1896;-56
2022/11/12 14:00:21;;;;;;;;;;;;;;;17.45;49.29;102356.59;5056447;28;1072;-57
2022/11/12 14:03:05;;;;;;;;;;;;;;;17.69;50.09;102361.22;5045687;28;882;-58
2022/11/12 14:05:49;;;;;;;;;;;;;;;17.09;50.29;102352.19;5056140;28;1131;-59
2022/11/12 14:08:44;;;;;;;;;;;;;;;18.05;50.12;102354.56;5040261;28;1042;-59
2022/11/12 14:11:38;;;;;;;;;;;;;;;17.40;49.93;102356.50;5055817;28;1910;-56
2022/11/12 14:14:40;;;;;;;;;;;;;;;18.05;49.94;102351.00;5055622;28;950;-57
2022/11/12 14:17:24;;;;;;;;;;;;;;;17.35;49.43;102359.13;5055837;28;1105;-56
2022/11/12 14:20:29;;;;;;;;;;;;;;;17.17;48.55;102362.81;5056045;28;1155;-57
2022/11/12 14:23:14;;;;;;;;;;;;;;;16.95;47.67;102354.31;5045921;28;1093;-58
2022/11/12 14:25:58;;;;;;;;;;;;;;;18.12;49.61;102358.00;5040612;28;1073;-58
2022/11/12 14:28:42;;;;;;;;;;;;;;;17.42;49.58;102361.75;5051963;28;1981;-57
2022/11/12 14:31:25;;;;;;;;;;;;;;;17.06;48.55;102361.75;5054829;28;1965;-58
2022/11/12 14:34:25;;;;;;;;;;;;;;;18.18;49.39;102353.44;5055362;28;1084;-60
2022/11/12 14:37:14;;;;;;;;;;;;;;;17.34;49.38;102356.63;5055172;28;978;-59
2022/11/12 14:39:58;;;;;;;;;;;;;;;17.05;48.98;102360.06;5039801;28;1053;-59
2022/11/12 14:42:42;;;;;;;;;;;;;;;17.36;49.68;102348.94;5040147;28;1157;-57
2022/11/12 14:45:26;;;;;;;;;;;;;;;17.92;49.54;102352.94;5040166;28;1377;-58
2022/11/12 14:48:10;;;;;;;;;;;;;;;18.47;49.79;102348.75;5055334;28;1081;-59
2022/11/12 14:50:56;;;;;;;;;;;;;;;17.58;50.05;102357.41;5054863;28;1963;-58
2022/11/12 14:53:45;;;;;;;;;;;;;;;17.28;49.53;102348.25;5055238;28;1073;-58